Latest Weather Observations for Armidale Airport

IDN60801

Issued at 3:32 pm EST Tuesday 28 July 2015 (issued every 30 minutes, with the page automatically refreshed every 10 minutes)

About weather observations | Map of weather stations | Latest weather observations for NSW | Other Formats
Station Details ID: 056238 Name: ARMIDALE AIRPORT AWS Lat: -30.53 Lon: 151.62 Height: 1079.0 m
Data from the previous 72 hours. | See also: Recent months for locations in New South Wales
Date/Time
EST
Temp
°C
App
Temp
°C
Dew
Point
Rel
Hum
%
Delta-T
°C
Wind Press
QNH
hPa
Press
MSL
hPa
Rain
since 9 am
mm
Dir
 
Spd
km/h
Gust
km/h
Spd
kts
Gust
kts
28/03:30pm 10.3 6.4 -6.5 30 6.2 SSE 6 9 3 5 1029.1 1029.6 0.0
28/03:00pm 10.3 5.0 -6.9 29 6.3 SSW 13 17 7 9 1029.2 1029.7 0.0
28/02:30pm 10.2 5.8 -6.2 31 6.1 ESE 9 13 5 7 1029.2 1029.7 0.0
28/02:00pm 9.8 5.9 -6.9 30 6.1 SW 6 11 3 6 1029.4 1029.8 0.0
28/01:30pm 9.7 5.3 -5.8 33 5.8 S 9 20 5 11 1029.4 1029.8 0.0
28/01:00pm 9.6 4.4 -6.3 32 5.8 E 13 17 7 9 1029.6 1030.0 0.0
28/12:30pm 8.9 4.1 -5.7 35 5.4 ESE 11 17 6 9 1030.1 1030.6 0.0
28/12:00pm 8.2 2.6 -6.0 36 5.2 ESE 15 24 8 13 1030.5 1030.9 0.0
28/11:30am 7.9 2.0 -5.2 39 4.9 E 17 24 9 13 1030.9 1031.4 0.0
28/11:00am 7.6 2.7 -3.3 46 4.2 E 13 19 7 10 1031.4 1031.8 0.0
28/10:30am 6.1 1.1 -4.3 47 3.9 SE 13 17 7 9 1031.7 1032.2 0.0
28/10:00am 5.6 1.5 -3.0 54 3.3 SE 9 11 5 6 1031.7 1032.2 0.0
28/09:30am 3.9 0.2 -2.7 62 2.5 SSE 7 9 4 5 1031.5 1032.0 0.0
28/09:00am 2.6 -0.8 -2.1 71 1.8 ESE 6 7 3 4 1031.2 1031.7 0.0
28/08:30am 1.1 -2.2 -1.5 83 1.0 ESE 6 7 3 4 1030.9 1031.4 0.0
28/08:00am -0.2 -3.8 -1.9 88 0.6 ESE 7 9 4 5 1030.5 1030.9 0.0
28/07:30am -2.6 -6.7 -3.1 96 0.1 ENE 9 11 5 6 1030.0 1030.5 0.0
28/07:00am -1.5 -5.9 -2.8 91 0.4 SSE 11 17 6 9 1029.7 1030.1 0.0
28/06:30am -1.8 -7.0 -2.6 94 0.2 S 15 17 8 9 1029.4 1029.8 0.0
28/06:00am -2.6 -6.1 -2.9 98 0.0 SSE 6 11 3 6 1029.2 1029.7 0.0
28/05:30am -4.4 -7.0 -4.7 98 -0.1 CALM 0 0 0 0 1029.0 1029.4 0.0
28/05:00am -4.9 -8.3 -5.2 98 -0.1 ENE 4 7 2 4 1028.7 1029.1 0.0
28/04:30am -4.3 -8.0 -4.7 97 -0.1 WSW 6 9 3 5 1028.5 1028.9 0.0
28/04:00am -3.7 -6.2 -4.1 97 0.0 CALM 0 0 0 0 1028.4 1028.8 0.0
28/03:30am -4.8 -7.9 -5.8 93 0.1 W 2 6 1 3 1028.5 1028.9 0.0
28/03:00am -2.5 -6.2 -2.8 98 0.0 W 7 7 4 4 1028.5 1028.9 0.0
28/02:30am -2.8 -6.6 -3.6 94 0.1 W 7 11 4 6 1028.2 1028.6 0.0
28/02:00am -2.2 -6.3 -2.9 95 0.1 W 9 11 5 6 1028.2 1028.6 0.0
28/01:30am -2.4 -6.1 -2.9 96 0.1 WSW 7 9 4 5 1028.1 1028.5 0.0
28/01:00am -3.1 -8.1 -4.1 93 0.2 W 13 15 7 8 1028.2 1028.6 0.0
28/12:30am -2.7 -8.0 -3.8 92 0.3 W 15 17 8 9 1028.2 1028.6 0.0
28/12:00am -2.0 -7.3 -3.4 90 0.4 WSW 15 17 8 9 1028.1 1028.5 0.0
 
Date/Time
EST
Temp
°C
App
Temp
°C
Dew
Point
Rel
Hum
%
Delta-T
°C
Wind Press
QNH
hPa
Press
MSL
hPa
Rain
since 9 am
mm
Dir
 
Spd
km/h
Gust
km/h
Spd
kts
Gust
kts
27/11:30pm -1.4 -5.5 -3.0 89 0.5 W 9 11 5 6 1028.2 1028.6 0.0
27/11:00pm -1.2 -5.7 -2.9 88 0.5 W 11 15 6 8 1028.4 1028.8 0.0
27/10:30pm -0.4 -5.6 -2.4 86 0.7 W 15 17 8 9 1028.5 1028.9 0.0
27/10:00pm -1.2 -6.4 -2.9 88 0.5 W 15 20 8 11 1028.5 1028.9 0.0
27/09:30pm -0.8 -4.5 -2.8 86 0.7 W 7 9 4 5 1028.2 1028.6 0.0
27/09:00pm -0.4 -5.2 -2.4 86 0.7 W 13 19 7 10 1028.0 1028.4 0.0
27/08:30pm -0.9 -5.3 -2.8 87 0.6 W 11 15 6 8 1027.9 1028.3 0.0
27/08:00pm -0.3 -4.7 -2.7 84 0.8 WSW 11 13 6 7 1028.0 1028.4 0.0
27/07:30pm 1.2 -3.5 -2.0 79 1.2 W 13 17 7 9 1027.5 1027.9 0.0
27/07:00pm 1.6 -4.4 -1.8 78 1.3 W 20 26 11 14 1026.9 1027.3 0.0
27/06:30pm 1.6 -3.5 -1.8 78 1.3 W 15 19 8 10 1026.5 1026.8 0.0
27/06:00pm 2.3 -3.2 -1.8 74 1.5 WSW 17 20 9 11 1026.0 1026.4 0.0
27/05:30pm 3.1 -2.9 -1.6 71 1.8 WSW 20 26 11 14 1025.4 1025.7 0.0
27/05:00pm 4.4 -2.0 -1.8 64 2.4 WSW 22 30 12 16 1025.2 1025.6 0.0
27/04:30pm 5.5 -1.7 -2.1 58 3.0 W 26 32 14 17 1024.9 1025.2 0.0
27/04:00pm 6.0 -1.7 -3.1 52 3.5 W 28 33 15 18 1024.7 1025.0 0.0
27/03:30pm 7.0 -0.7 -3.0 49 3.9 W 28 35 15 19 1024.5 1024.8 0.0
27/03:00pm 7.2 -0.4 -2.5 50 3.8 W 28 35 15 19 1024.5 1024.8 0.0
27/02:30pm 6.5 -2.4 -5.2 43 4.3 W 33 43 18 23 1024.2 1024.6 0.0
27/02:00pm 6.9 -1.7 -4.5 44 4.2 W 32 41 17 22 1024.2 1024.6 0.0
27/01:30pm 7.2 -0.9 -3.3 47 4.1 WNW 30 37 16 20 1024.2 1024.6 0.0
27/01:00pm 7.6 -0.2 -3.9 44 4.4 W 28 35 15 19 1024.4 1024.7 0.0
27/12:30pm 7.2 0.0 -1.7 53 3.6 W 26 35 14 19 1024.9 1025.2 0.0
27/12:00pm 6.9 -1.1 -2.3 52 3.6 WSW 30 41 16 22 1025.1 1025.5 0.0
27/11:30am 6.6 -0.3 0.1 63 2.7 WSW 26 35 14 19 1025.5 1025.8 0.0
27/11:00am 6.0 -0.8 1.0 70 2.1 W 26 32 14 17 1025.6 1025.9 0.0
27/10:30am 5.4 -1.8 0.4 70 2.1 W 28 35 15 19 1025.8 1026.1 0.0
27/10:00am 4.7 -2.1 0.5 74 1.7 W 26 33 14 18 1025.9 1026.3 0.0
27/09:39am 4.0 -2.8 0.5 78 1.4 W 26 35 14 19 1025.9 1026.3 0.0
27/09:30am 4.0 -2.4 0.7 79 1.4 W 24 33 13 18 1025.8 1026.1 0.0
27/09:00am 4.3 -2.6 2.3 87 0.9 W 28 35 15 19 1025.4 1025.7 0.2
27/08:30am 3.2 -2.9 2.9 98 0.1 WNW 24 30 13 16 1024.9 1025.2 0.2
27/08:00am 3.4 -2.3 3.0 97 0.2 WNW 22 30 12 16 1024.8 1025.1 0.2
27/07:45am 3.6 -2.0 3.2 97 0.2 WNW 22 28 12 15 1024.8 1025.1 0.2
27/07:30am 3.3 -1.4 3.0 98 0.1 WNW 17 22 9 12 1024.8 1025.1 0.2
27/07:00am 2.6 -2.3 2.3 98 0.1 WNW 17 24 9 13 1024.4 1024.7 0.2
27/06:30am 2.7 -2.5 2.3 97 0.2 WNW 19 20 10 11 1024.1 1024.4 0.2
27/06:00am 3.6 -1.2 2.7 94 0.4 WNW 17 22 9 12 1023.9 1024.2 0.2
27/05:40am 4.1 -1.1 3.4 95 0.3 WNW 20 28 11 15 1023.7 1024.0 0.2
27/05:30am 4.1 -1.5 3.5 96 0.3 W 22 32 12 17 1023.6 1023.9 0.2
27/05:00am 4.5 -2.5 4.2 98 0.1 W 30 39 16 21 1022.9 1023.2 0.2
27/04:32am 4.9 -1.6 4.5 97 0.2 W 28 37 15 20 1022.9 1023.2 0.2
27/04:30am 4.9 -1.6 4.5 97 0.2 W 28 41 15 22 1022.9 1023.2 0.2
27/04:26am 5.1 -1.8 4.8 98 0.1 W 30 41 16 22 1022.8 1023.1 0.2
27/04:10am 5.2 -0.5 4.9 98 0.1 W 24 32 13 17 1022.8 1023.1 0.2
27/04:00am 5.3 0.0 5.0 98 0.1 W 22 32 12 17 1022.7 1023.0 0.2
27/03:30am 5.2 0.3 4.9 98 0.1 W 20 28 11 15 1022.6 1022.8 0.2
27/03:00am 5.4 0.5 5.0 97 0.2 W 20 26 11 14 1022.7 1023.0 0.2
27/02:30am 5.3 -0.5 4.4 94 0.4 W 24 33 13 18 1022.4 1022.6 0.2
27/02:00am 5.1 0.1 4.5 96 0.3 W 20 24 11 13 1021.9 1022.2 0.2
27/01:30am 5.3 -0.1 4.3 93 0.5 W 22 30 12 16 1022.2 1022.5 0.2
27/01:00am 5.6 -0.6 4.2 91 0.6 WNW 26 32 14 17 1022.4 1022.6 0.2
27/12:30am 5.8 0.4 4.4 91 0.6 WNW 22 28 12 15 1022.5 1022.7 0.2
27/12:00am 5.7 0.6 4.2 90 0.7 WNW 20 28 11 15 1022.6 1022.8 0.2
 
Date/Time
EST
Temp
°C
App
Temp
°C
Dew
Point
Rel
Hum
%
Delta-T
°C
Wind Press
QNH
hPa
Press
MSL
hPa
Rain
since 9 am
mm
Dir
 
Spd
km/h
Gust
km/h
Spd
kts
Gust
kts
26/11:30pm 5.7 0.2 4.0 89 0.8 WNW 22 28 12 15 1022.8 1023.1 0.2
26/11:00pm 5.5 -0.1 3.5 87 0.9 WNW 22 28 12 15 1022.6 1022.8 0.2
26/10:30pm 6.1 0.5 3.4 83 1.2 WNW 22 30 12 16 1022.8 1023.1 0.2
26/10:00pm 6.5 0.1 3.3 80 1.4 W 26 32 14 17 1022.7 1023.0 0.2
26/09:30pm 6.6 0.9 2.9 77 1.7 WNW 22 28 12 15 1022.5 1022.7 0.2
26/09:00pm 6.7 1.0 2.6 75 1.8 WNW 22 30 12 16 1022.5 1022.7 0.2
26/08:30pm 6.7 1.0 2.8 76 1.7 WNW 22 26 12 14 1022.5 1022.7 0.2
26/08:00pm 6.5 1.2 2.8 77 1.6 WNW 20 24 11 13 1022.6 1022.8 0.2
26/07:30pm 7.0 1.9 3.3 77 1.7 WNW 19 20 10 11 1022.0 1022.3 0.2
26/07:00pm 7.4 2.4 4.4 81 1.4 WNW 20 24 11 13 1021.7 1021.9 0.2
26/06:30pm 8.3 3.2 4.3 76 1.9 WNW 20 28 11 15 1021.0 1021.2 0.2
26/06:00pm 8.2 3.7 4.2 76 1.9 WNW 17 20 9 11 1020.7 1020.9 0.2
26/05:30pm 8.9 4.3 3.7 70 2.4 WNW 17 22 9 12 1020.3 1020.5 0.2
26/05:00pm 10.2 4.2 3.5 63 3.1 WNW 24 32 13 17 1019.8 1020.0 0.2
26/04:30pm 11.6 6.0 3.4 57 3.9 W 22 30 12 16 1019.5 1019.7 0.2
26/04:00pm 12.2 5.4 2.9 53 4.3 WNW 28 41 15 22 1019.4 1019.5 0.2
26/03:30pm 12.7 5.9 3.1 52 4.5 WNW 28 39 15 21 1019.5 1019.7 0.2
26/03:00pm 13.0 5.7 2.3 48 5.0 WNW 30 37 16 20 1019.0 1019.2 0.2
26/02:30pm 12.9 4.8 1.3 45 5.3 WNW 33 39 18 21 1018.8 1019.0 0.2
26/02:00pm 12.9 5.4 1.3 45 5.3 W 30 41 16 22 1019.0 1019.2 0.2
26/01:30pm 12.9 6.2 3.6 53 4.4 WNW 28 39 15 21 1019.4 1019.5 0.0
26/01:00pm 12.7 6.1 4.2 56 4.1 WNW 28 35 15 19 1020.0 1020.2 0.0
26/12:30pm 12.1 5.3 3.3 55 4.1 WNW 28 39 15 21 1020.4 1020.6 0.0
26/12:00pm 12.2 5.8 5.1 62 3.5 W 28 37 15 20 1020.5 1020.7 0.0
26/11:30am 11.5 4.7 4.9 64 3.2 W 30 37 16 20 1020.8 1021.0 0.0
26/11:00am 11.3 4.7 4.1 61 3.4 W 28 35 15 19 1021.1 1021.4 0.0
26/10:30am 10.7 4.2 4.6 66 2.9 W 28 33 15 18 1021.9 1022.2 0.0
26/10:00am 10.8 5.1 5.1 68 2.8 WNW 24 32 13 17 1021.5 1021.7 0.0
26/09:30am 10.1 5.4 5.9 75 2.1 NW 20 28 11 15 1022.0 1022.3 0.0
26/09:00am 8.9 3.7 7.4 90 0.8 WNW 24 32 13 17 1022.4 1022.6 0.0
26/08:55am 8.8 3.6 7.3 90 0.8 WNW 24 35 13 19 1022.2 1022.5 0.0
26/08:30am 8.9 3.6 8.6 98 0.2 WNW 26 35 14 19 1022.6 1022.8 0.0
26/08:00am 8.4 3.5 8.3 99 0.1 W 24 30 13 16 1022.4 1022.6 0.0
26/07:30am 8.1 4.8 8.0 99 0.1 WNW 15 22 8 12 1021.6 1021.8 0.0
26/07:00am 8.0 4.7 7.9 99 0.1 WNW 15 20 8 11 1021.8 1022.0 0.0
26/06:30am 8.0 4.3 8.0 100 0.0 WNW 17 22 9 12 1021.7 1021.9 0.0
26/06:04am 7.9 3.8 7.9 100 0.0 WNW 19 24 10 13 1021.1 1021.4 0.0
26/06:00am 7.9 4.2 7.9 100 0.0 WNW 17 22 9 12 1021.5 1021.7 0.0
26/05:52am 7.9 3.8 7.9 100 0.0 WNW 19 24 10 13 1021.6 1021.8 0.0
26/05:32am 7.7 5.1 7.7 100 0.0 NW 11 15 6 8 1021.7 1021.9 0.0
26/05:30am 7.7 5.5 7.7 100 0.0 NW 9 13 5 7 1021.5 1021.7 0.0
26/05:00am 7.6 5.3 7.6 100 0.0 WNW 9 11 5 6 1021.4 1021.6 0.0
26/04:36am 7.0 4.2 6.9 99 0.0 W 11 15 6 8 1021.6 1021.8 0.0
26/04:30am 7.0 3.8 6.9 99 0.0 W 13 17 7 9 1021.3 1021.5 0.0
26/04:18am 7.1 3.6 7.0 99 0.0 WNW 15 20 8 11 1021.1 1021.4 0.0
26/04:00am 7.2 3.7 7.1 99 0.0 WNW 15 20 8 11 1020.6 1020.8 0.0
26/03:30am 7.9 3.8 7.8 99 0.1 WNW 19 26 10 14 1021.0 1021.2 0.0
26/03:00am 8.3 3.3 8.2 99 0.1 WNW 24 32 13 17 1021.8 1022.0 0.0
26/02:30am 8.4 4.2 8.3 99 0.1 WNW 20 28 11 15 1021.6 1021.8 0.0
26/02:24am 8.3 3.7 8.2 99 0.1 WNW 22 28 12 15 1021.4 1021.6 0.0
26/02:00am 8.4 3.8 8.3 99 0.1 WNW 22 30 12 16 1021.8 1022.0 0.0
26/01:30am 8.5 4.3 8.4 99 0.1 WNW 20 30 11 16 1022.2 1022.5 0.0
26/01:00am 8.6 4.1 8.5 99 0.1 WNW 22 30 12 16 1022.1 1022.4 0.0
26/12:30am 8.6 4.7 8.5 99 0.1 WNW 19 26 10 14 1021.9 1022.2 0.0
26/12:00am 8.6 4.5 8.5 99 0.1 WNW 20 26 11 14 1022.2 1022.5 0.0
 
Date/Time
EST
Temp
°C
App
Temp
°C
Dew
Point
Rel
Hum
%
Delta-T
°C
Wind Press
QNH
hPa
Press
MSL
hPa
Rain
since 9 am
mm
Dir
 
Spd
km/h
Gust
km/h
Spd
kts
Gust
kts
25/11:30pm 8.5 4.3 8.4 99 0.1 WNW 20 28 11 15 1021.9 1022.2 0.0
25/11:08pm 8.5 4.3 8.4 99 0.1 WNW 20 26 11 14 1022.7 1023.0 0.0
25/11:00pm 8.3 4.3 8.2 99 0.1 WNW 19 26 10 14 1022.5 1022.7 0.0
25/10:30pm 8.7 4.5 8.4 98 0.2 WNW 20 28 11 15 1022.5 1022.7 0.0
25/10:00pm 8.6 4.6 8.3 98 0.2 WNW 19 24 10 13 1023.0 1023.3 0.0
25/09:30pm 8.3 4.2 8.0 98 0.2 WNW 19 22 10 12 1022.6 1022.8 0.0
25/09:00pm 8.1 4.7 7.8 98 0.2 NW 15 17 8 9 1022.5 1022.7 0.0
25/08:57pm 8.1 4.7 7.8 98 0.2 NW 15 17 8 9 1022.4 1022.6 0.0
25/08:56pm 8.2 4.9 7.9 98 0.2 NW 15 17 8 9 1022.4 1022.6 0.0
25/08:30pm 8.5 5.2 8.2 98 0.2 NW 15 20 8 11 1022.2 1022.5 0.0
25/08:00pm 8.7 4.7 8.4 98 0.2 NW 19 24 10 13 1022.6 1022.8 0.0
25/07:30pm 8.8 4.9 8.5 98 0.2 NW 19 24 10 13 1021.9 1022.2 0.0
25/07:00pm 9.2 5.2 8.9 98 0.2 NW 20 26 11 14 1021.9 1022.2 0.0
25/06:30pm 8.7 5.1 8.4 98 0.2 WNW 17 20 9 11 1021.6 1021.8 0.0
25/06:00pm 8.8 5.6 8.4 97 0.2 WNW 15 17 8 9 1021.5 1021.7 0.0
25/05:30pm 9.1 5.7 7.7 91 0.7 WNW 15 19 8 10 1020.9 1021.1 0.0
25/05:00pm 10.1 6.0 7.9 86 1.1 WNW 19 22 10 12 1021.0 1021.2 0.0
25/04:30pm 11.0 6.3 7.7 80 1.7 WNW 22 32 12 17 1020.7 1020.9 0.0
25/04:00pm 11.7 7.5 8.2 79 1.8 WNW 20 26 11 14 1020.8 1021.0 0.0

Other Formats:

Comma delimited format used in spreadsheet applications
http://www.bom.gov.au/fwo/IDN60801/IDN60801.95773.axf

JavaScript Object Notation format (JSON) in row-major order
http://www.bom.gov.au/fwo/IDN60801/IDN60801.95773.json